Grafenwoehr, Germany

12:24 AM CET on February 09, 2016 (GMT +0100)
Bayernstrasse | | Change Station
CLOSE
Current Station
Personal Weather Station
Location: Weiden In Der Oberpfalz, BAYERN
Elevation: 1306 ft
Nearby Weather Stations

Elev 1306 ft 49.66 °N, 12.15 °E | Updated 31 seconds ago

Mostly Cloudy
Mostly Cloudy
40.6 °F
Feels Like 39 °F
N
3.2
Wind Variable Wind from NE

Today
High -- | Low -- °F
--% Chance of Precip.
Yesterday
High -- | Low -- °F
Precip. -- in
Pressure 29.70 in
Visibility 6.2 miles
Clouds Scattered Clouds 4000 ft
Scattered Clouds 4800 ft
Mostly Cloudy 7000 ft
Windchill 39 °F
Dew Point 34 °F
Humidity 78%
Rainfall 0.00 in
Snow Depth Not available.
7:33 AM 5:19 PM
New Moon, 0% visible
SPECI ETIH 082314Z AUTO VRB05KT 9999 SCT040 SCT048 BKN070 05/03 A2970 RMK AO2 RAB02E14
Pressure 29.70 in
Visibility 6.2 miles
Clouds Scattered Clouds 4000 ft
Scattered Clouds 4800 ft
Mostly Cloudy 7000 ft
Windchill 39 °F
Dew Point 34 °F
Humidity 78%
Rainfall 0.00 in
Snow Depth Not available.
7:33 AM 5:19 PM
New Moon, 0% visible
SPECI ETIH 082314Z AUTO VRB05KT 9999 SCT040 SCT048 BKN070 05/03 A2970 RMK AO2 RAB02E14

10-Day Weather Forecast

Almanac

Astronomy

Feb. 09, 2016 Rise Set
Actual Time
Civil Twilight
Nautical Twilight
Astronomical Twilight
Moon
Length of Visible Light
Length of Day
Tomorrow will be .
, % of the Moon is Illuminated

Today's Extremes

Country Highs Country Lows

Community

WunderPhotos

Upload Photos

1,891,525 photos uploaded!

WunderBlog® & News

Nearby

Air Quality

  Air Quality AQ Index Pollutant
Not available.

Snow Depth

Station Depth Elevation

Earthquake Activity

City Distance Mag. Time & Date
Minimum magnitude displayed is 2.5.

Coastal Water Temperatures

Place Temperature

Stations

Nearby Weather Stations

Station Location Temp. Windchill Dew Point Humidity Wind Precip. Elev Updated Type